sensor_id;sensor_type;location;lat;lon;timestamp;pressure;altitude;pressure_sealevel;temperature;humidity
5283;BME280;15376;48.540;9.268;2023-08-21T00:01:51;98047.34;;;20.50;100.00
5283;BME280;15376;48.540;9.268;2023-08-21T00:04:17;98009.97;;;20.24;100.00
5283;BME280;15376;48.540;9.268;2023-08-21T00:06:43;98036.66;;;20.44;100.00
5283;BME280;15376;48.540;9.268;2023-08-21T00:09:08;98045.94;;;20.59;100.00
5283;BME280;15376;48.540;9.268;2023-08-21T00:11:34;98038.56;;;20.55;100.00
5283;BME280;15376;48.540;9.268;2023-08-21T00:14:00;98008.69;;;20.26;100.00
5283;BME280;15376;48.540;9.268;2023-08-21T00:16:25;97965.84;;;19.95;100.00
5283;BME280;15376;48.540;9.268;2023-08-21T00:18:52;98029.94;;;20.35;100.00
5283;BME280;15376;48.540;9.268;2023-08-21T00:21:19;98030.88;;;20.28;100.00
5283;BME280;15376;48.540;9.268;2023-08-21T00:23:44;98040.84;;;20.28;100.00
5283;BME280;15376;48.540;9.268;2023-08-21T00:26:09;97988.59;;;19.99;100.00
5283;BME280;15376;48.540;9.268;2023-08-21T00:28:35;98024.88;;;20.26;100.00
5283;BME280;15376;48.540;9.268;2023-08-21T00:31:01;98035.00;;;20.43;100.00
5283;BME280;15376;48.540;9.268;2023-08-21T00:33:27;98038.16;;;20.40;100.00
5283;BME280;15376;48.540;9.268;2023-08-21T00:35:52;98010.16;;;20.11;100.00
5283;BME280;15376;48.540;9.268;2023-08-21T00:38:17;98021.09;;;20.16;100.00
5283;BME280;15376;48.540;9.268;2023-08-21T00:40:43;98002.78;;;20.06;100.00
5283;BME280;15376;48.540;9.268;2023-08-21T00:43:08;98036.03;;;20.30;100.00
5283;BME280;15376;48.540;9.268;2023-08-21T00:45:33;98034.28;;;20.36;100.00
5283;BME280;15376;48.540;9.268;2023-08-21T00:47:59;98040.97;;;20.33;100.00
5283;BME280;15376;48.540;9.268;2023-08-21T00:50:25;97978.28;;;19.96;100.00
5283;BME280;15376;48.540;9.268;2023-08-21T00:52:50;97988.59;;;19.99;100.00
5283;BME280;15376;48.540;9.268;2023-08-21T00:55:16;98019.72;;;20.25;100.00
5283;BME280;15376;48.540;9.268;2023-08-21T00:57:43;97994.81;;;20.11;100.00
5283;BME280;15376;48.540;9.268;2023-08-21T01:00:09;98022.31;;;20.31;100.00
5283;BME280;15376;48.540;9.268;2023-08-21T01:02:37;98011.03;;;20.23;100.00
5283;BME280;15376;48.540;9.268;2023-08-21T01:05:03;98021.03;;;20.34;100.00
5283;BME280;15376;48.540;9.268;2023-08-21T01:07:35;98022.91;;;20.34;100.00
5283;BME280;15376;48.540;9.268;2023-08-21T01:10:11;98014.59;;;20.05;100.00
5283;BME280;15376;48.540;9.268;2023-08-21T01:12:49;98032.56;;;20.11;100.00
5283;BME280;15376;48.540;9.268;2023-08-21T01:15:16;97997.47;;;19.99;100.00
5283;BME280;15376;48.540;9.268;2023-08-21T01:17:43;98034.44;;;20.11;100.00
5283;BME280;15376;48.540;9.268;2023-08-21T01:20:11;97991.19;;;19.76;100.00
5283;BME280;15376;48.540;9.268;2023-08-21T01:22:38;97995.50;;;19.65;100.00
5283;BME280;15376;48.540;9.268;2023-08-21T01:25:07;98025.69;;;19.85;100.00
5283;BME280;15376;48.540;9.268;2023-08-21T01:27:34;98033.41;;;19.82;100.00
5283;BME280;15376;48.540;9.268;2023-08-21T01:30:02;98029.25;;;19.68;100.00
5283;BME280;15376;48.540;9.268;2023-08-21T01:32:46;98034.38;;;19.57;100.00
5283;BME280;15376;48.540;9.268;2023-08-21T01:35:13;98038.94;;;19.57;100.00
5283;BME280;15376;48.540;9.268;2023-08-21T01:37:39;98031.19;;;19.60;100.00
5283;BME280;15376;48.540;9.268;2023-08-21T01:40:05;97999.34;;;19.39;100.00
5283;BME280;15376;48.540;9.268;2023-08-21T01:42:31;98012.94;;;19.44;100.00
5283;BME280;15376;48.540;9.268;2023-08-21T01:44:56;98026.88;;;19.59;100.00
5283;BME280;15376;48.540;9.268;2023-08-21T01:47:22;98014.16;;;19.48;100.00
5283;BME280;15376;48.540;9.268;2023-08-21T01:49:47;98035.16;;;19.76;100.00
5283;BME280;15376;48.540;9.268;2023-08-21T01:52:12;98030.13;;;19.80;100.00
5283;BME280;15376;48.540;9.268;2023-08-21T01:54:38;98004.84;;;19.62;100.00
5283;BME280;15376;48.540;9.268;2023-08-21T01:57:04;98027.88;;;19.77;100.00
5283;BME280;15376;48.540;9.268;2023-08-21T01:59:30;98014.50;;;19.70;100.00
5283;BME280;15376;48.540;9.268;2023-08-21T02:01:55;97995.88;;;19.50;100.00
5283;BME280;15376;48.540;9.268;2023-08-21T02:04:21;98027.47;;;19.61;100.00
5283;BME280;15376;48.540;9.268;2023-08-21T02:06:46;98025.91;;;19.54;100.00
5283;BME280;15376;48.540;9.268;2023-08-21T02:09:11;98002.47;;;19.36;100.00
5283;BME280;15376;48.540;9.268;2023-08-21T02:11:37;98025.69;;;19.55;100.00
5283;BME280;15376;48.540;9.268;2023-08-21T02:14:02;98033.66;;;19.62;100.00
5283;BME280;15376;48.540;9.268;2023-08-21T02:16:28;98026.19;;;19.64;100.00
5283;BME280;15376;48.540;9.268;2023-08-21T02:18:53;97995.13;;;19.43;100.00
5283;BME280;15376;48.540;9.268;2023-08-21T02:21:19;98011.59;;;19.35;100.00
5283;BME280;15376;48.540;9.268;2023-08-21T02:23:45;97969.22;;;19.12;100.00
5283;BME280;15376;48.540;9.268;2023-08-21T02:26:10;98006.81;;;19.37;100.00
5283;BME280;15376;48.540;9.268;2023-08-21T02:28:36;97999.34;;;19.39;100.00
5283;BME280;15376;48.540;9.268;2023-08-21T02:31:01;97990.50;;;19.32;100.00
5283;BME280;15376;48.540;9.268;2023-08-21T02:33:26;98012.66;;;19.34;100.00
5283;BME280;15376;48.540;9.268;2023-08-21T02:35:52;97978.34;;;19.11;100.00
5283;BME280;15376;48.540;9.268;2023-08-21T02:38:17;97999.50;;;19.08;100.00
5283;BME280;15376;48.540;9.268;2023-08-21T02:40:42;98019.31;;;19.31;100.00
5283;BME280;15376;48.540;9.268;2023-08-21T02:43:07;98026.28;;;19.21;100.00
5283;BME280;15376;48.540;9.268;2023-08-21T02:45:33;98034.34;;;19.21;100.00
5283;BME280;15376;48.540;9.268;2023-08-21T02:47:58;98031.50;;;19.34;100.00
5283;BME280;15376;48.540;9.268;2023-08-21T02:50:24;98008.03;;;19.23;100.00
5283;BME280;15376;48.540;9.268;2023-08-21T02:52:49;98013.25;;;19.36;100.00
5283;BME280;15376;48.540;9.268;2023-08-21T02:55:14;98018.94;;;19.46;100.00
5283;BME280;15376;48.540;9.268;2023-08-21T02:57:41;98022.63;;;19.52;100.00
5283;BME280;15376;48.540;9.268;2023-08-21T03:00:06;98028.75;;;19.59;100.00
5283;BME280;15376;48.540;9.268;2023-08-21T03:02:35;98014.31;;;19.53;100.00
5283;BME280;15376;48.540;9.268;2023-08-21T03:05:01;98032.63;;;19.63;100.00
5283;BME280;15376;48.540;9.268;2023-08-21T03:07:26;97961.78;;;19.26;100.00
5283;BME280;15376;48.540;9.268;2023-08-21T03:09:51;98021.72;;;19.58;100.00
5283;BME280;15376;48.540;9.268;2023-08-21T03:12:17;98010.25;;;19.44;100.00
5283;BME280;15376;48.540;9.268;2023-08-21T03:14:42;97999.41;;;19.32;100.00
5283;BME280;15376;48.540;9.268;2023-08-21T03:17:08;97979.81;;;19.25;100.00
5283;BME280;15376;48.540;9.268;2023-08-21T03:19:33;98024.06;;;19.54;100.00
5283;BME280;15376;48.540;9.268;2023-08-21T03:21:59;97984.06;;;19.33;100.00
5283;BME280;15376;48.540;9.268;2023-08-21T03:24:24;98025.97;;;19.47;100.00
5283;BME280;15376;48.540;9.268;2023-08-21T03:26:49;98023.72;;;19.44;100.00
5283;BME280;15376;48.540;9.268;2023-08-21T03:29:15;98011.16;;;19.38;100.00
5283;BME280;15376;48.540;9.268;2023-08-21T03:31:41;98000.63;;;19.18;100.00
5283;BME280;15376;48.540;9.268;2023-08-21T03:34:06;98030.53;;;19.28;100.00
5283;BME280;15376;48.540;9.268;2023-08-21T03:36:31;98028.00;;;19.33;100.00
5283;BME280;15376;48.540;9.268;2023-08-21T03:39:00;98030.38;;;19.42;100.00
5283;BME280;15376;48.540;9.268;2023-08-21T03:41:26;98021.94;;;19.38;100.00
5283;BME280;15376;48.540;9.268;2023-08-21T03:43:52;98007.56;;;19.26;100.00
5283;BME280;15376;48.540;9.268;2023-08-21T03:46:18;98030.59;;;19.22;100.00
5283;BME280;15376;48.540;9.268;2023-08-21T03:48:43;98024.34;;;19.10;100.00
5283;BME280;15376;48.540;9.268;2023-08-21T03:51:08;98032.28;;;19.05;100.00
5283;BME280;15376;48.540;9.268;2023-08-21T03:53:34;98028.66;;;18.92;100.00
5283;BME280;15376;48.540;9.268;2023-08-21T03:55:59;98002.94;;;18.53;100.00
5283;BME280;15376;48.540;9.268;2023-08-21T03:58:24;98043.41;;;18.65;100.00
5283;BME280;15376;48.540;9.268;2023-08-21T04:00:53;98028.72;;;18.68;100.00
5283;BME280;15376;48.540;9.268;2023-08-21T04:03:19;98044.50;;;18.82;100.00
5283;BME280;15376;48.540;9.268;2023-08-21T04:05:45;98044.03;;;18.85;100.00
5283;BME280;15376;48.540;9.268;2023-08-21T04:08:10;98050.19;;;18.92;100.00
5283;BME280;15376;48.540;9.268;2023-08-21T04:10:36;97993.00;;;18.54;100.00
5283;BME280;15376;48.540;9.268;2023-08-21T04:13:01;98004.56;;;18.54;100.00
5283;BME280;15376;48.540;9.268;2023-08-21T04:15:27;98003.75;;;18.54;100.00
5283;BME280;15376;48.540;9.268;2023-08-21T04:17:52;98065.91;;;18.95;100.00
5283;BME280;15376;48.540;9.268;2023-08-21T04:20:20;98026.41;;;18.71;100.00
5283;BME280;15376;48.540;9.268;2023-08-21T04:22:49;98065.00;;;19.02;100.00
5283;BME280;15376;48.540;9.268;2023-08-21T04:25:14;98016.06;;;18.68;100.00
5283;BME280;15376;48.540;9.268;2023-08-21T04:27:39;98040.00;;;18.76;100.00
5283;BME280;15376;48.540;9.268;2023-08-21T04:30:05;97999.91;;;18.43;100.00
5283;BME280;15376;48.540;9.268;2023-08-21T04:32:31;98038.22;;;18.70;100.00
5283;BME280;15376;48.540;9.268;2023-08-21T04:34:56;98074.41;;;18.92;100.00
5283;BME280;15376;48.540;9.268;2023-08-21T04:37:23;97991.03;;;18.43;100.00
5283;BME280;15376;48.540;9.268;2023-08-21T04:39:52;97996.56;;;18.48;100.00
5283;BME280;15376;48.540;9.268;2023-08-21T04:42:17;98076.88;;;18.94;100.00
5283;BME280;15376;48.540;9.268;2023-08-21T04:44:43;98076.88;;;18.94;100.00
5283;BME280;15376;48.540;9.268;2023-08-21T04:47:22;98077.56;;;18.89;100.00
5283;BME280;15376;48.540;9.268;2023-08-21T04:49:49;98081.66;;;18.92;100.00
5283;BME280;15376;48.540;9.268;2023-08-21T04:52:15;98080.41;;;18.94;100.00
5283;BME280;15376;48.540;9.268;2023-08-21T04:54:40;98053.16;;;18.84;100.00
5283;BME280;15376;48.540;9.268;2023-08-21T04:57:05;98059.03;;;18.99;100.00
5283;BME280;15376;48.540;9.268;2023-08-21T04:59:31;98073.41;;;19.12;100.00
5283;BME280;15376;48.540;9.268;2023-08-21T05:01:56;98066.31;;;19.17;100.00
5283;BME280;15376;48.540;9.268;2023-08-21T05:04:22;98044.84;;;19.11;100.00
5283;BME280;15376;48.540;9.268;2023-08-21T05:06:47;98084.09;;;19.37;100.00
5283;BME280;15376;48.540;9.268;2023-08-21T05:09:13;98081.63;;;19.35;100.00
5283;BME280;15376;48.540;9.268;2023-08-21T05:11:38;98044.16;;;19.15;100.00
5283;BME280;15376;48.540;9.268;2023-08-21T05:14:03;98086.03;;;19.54;100.00
5283;BME280;15376;48.540;9.268;2023-08-21T05:16:29;98065.78;;;19.45;100.00
5283;BME280;15376;48.540;9.268;2023-08-21T05:18:54;98079.41;;;19.50;100.00
5283;BME280;15376;48.540;9.268;2023-08-21T05:21:19;98057.78;;;19.39;100.00
5283;BME280;15376;48.540;9.268;2023-08-21T05:23:45;98079.25;;;19.63;100.00
5283;BME280;15376;48.540;9.268;2023-08-21T05:26:10;98078.50;;;19.75;100.00
5283;BME280;15376;48.540;9.268;2023-08-21T05:28:35;98079.47;;;19.80;100.00
5283;BME280;15376;48.540;9.268;2023-08-21T05:31:01;98088.81;;;19.96;100.00
5283;BME280;15376;48.540;9.268;2023-08-21T05:33:26;98056.63;;;19.83;100.00
5283;BME280;15376;48.540;9.268;2023-08-21T05:35:51;97961.19;;;19.24;100.00
5283;BME280;15376;48.540;9.268;2023-08-21T05:38:17;98089.44;;;20.10;100.00
5283;BME280;15376;48.540;9.268;2023-08-21T05:40:42;98076.50;;;20.00;100.00
5283;BME280;15376;48.540;9.268;2023-08-21T05:43:08;98078.63;;;19.98;100.00
5283;BME280;15376;48.540;9.268;2023-08-21T05:45:33;98082.03;;;20.05;100.00
5283;BME280;15376;48.540;9.268;2023-08-21T05:47:59;98062.56;;;20.03;100.00
5283;BME280;15376;48.540;9.268;2023-08-21T05:50:24;98098.59;;;20.39;100.00
5283;BME280;15376;48.540;9.268;2023-08-21T05:52:49;98098.25;;;20.47;100.00
5283;BME280;15376;48.540;9.268;2023-08-21T05:55:15;98103.31;;;20.55;100.00
5283;BME280;15376;48.540;9.268;2023-08-21T05:57:40;98091.13;;;20.64;100.00
5283;BME280;15376;48.540;9.268;2023-08-21T06:00:06;98075.88;;;20.58;100.00
5283;BME280;15376;48.540;9.268;2023-08-21T06:02:35;98095.84;;;20.80;100.00
5283;BME280;15376;48.540;9.268;2023-08-21T06:05:00;98101.47;;;20.90;100.00
5283;BME280;15376;48.540;9.268;2023-08-21T06:07:25;98066.03;;;20.87;100.00
5283;BME280;15376;48.540;9.268;2023-08-21T06:09:51;98083.66;;;21.13;100.00
5283;BME280;15376;48.540;9.268;2023-08-21T06:12:18;98087.88;;;21.32;100.00
5283;BME280;15376;48.540;9.268;2023-08-21T06:14:43;98090.91;;;21.47;100.00
5283;BME280;15376;48.540;9.268;2023-08-21T06:17:09;98088.53;;;21.62;100.00
5283;BME280;15376;48.540;9.268;2023-08-21T06:19:34;98094.63;;;21.70;100.00
5283;BME280;15376;48.540;9.268;2023-08-21T06:22:00;98094.00;;;21.79;100.00
5283;BME280;15376;48.540;9.268;2023-08-21T06:24:25;98090.59;;;21.84;100.00
5283;BME280;15376;48.540;9.268;2023-08-21T06:26:51;98070.97;;;21.77;100.00
5283;BME280;15376;48.540;9.268;2023-08-21T06:29:17;98066.34;;;21.89;100.00
5283;BME280;15376;48.540;9.268;2023-08-21T06:31:43;98097.91;;;22.12;100.00
5283;BME280;15376;48.540;9.268;2023-08-21T06:34:09;98100.22;;;22.20;100.00
5283;BME280;15376;48.540;9.268;2023-08-21T06:36:34;98090.53;;;22.36;100.00
5283;BME280;15376;48.540;9.268;2023-08-21T06:38:59;98088.22;;;22.44;100.00
5283;BME280;15376;48.540;9.268;2023-08-21T06:41:25;98095.22;;;22.57;100.00
5283;BME280;15376;48.540;9.268;2023-08-21T06:43:50;98103.84;;;22.71;100.00
5283;BME280;15376;48.540;9.268;2023-08-21T06:46:16;98066.66;;;22.66;100.00
5283;BME280;15376;48.540;9.268;2023-08-21T06:48:42;98100.00;;;23.00;100.00
5283;BME280;15376;48.540;9.268;2023-08-21T06:51:07;98089.00;;;23.07;100.00
5283;BME280;15376;48.540;9.268;2023-08-21T06:53:34;98083.50;;;23.18;100.00
5283;BME280;15376;48.540;9.268;2023-08-21T06:55:59;98098.06;;;23.34;100.00
5283;BME280;15376;48.540;9.268;2023-08-21T06:58:24;98054.59;;;23.29;100.00
5283;BME280;15376;48.540;9.268;2023-08-21T07:00:50;98076.59;;;23.49;100.00
5283;BME280;15376;48.540;9.268;2023-08-21T07:03:15;98087.03;;;23.57;100.00
5283;BME280;15376;48.540;9.268;2023-08-21T07:05:40;98085.97;;;23.58;100.00
5283;BME280;15376;48.540;9.268;2023-08-21T07:08:06;98070.75;;;23.57;100.00
5283;BME280;15376;48.540;9.268;2023-08-21T07:10:36;98086.75;;;23.81;100.00
5283;BME280;15376;48.540;9.268;2023-08-21T07:13:02;98088.66;;;23.80;100.00
5283;BME280;15376;48.540;9.268;2023-08-21T07:15:29;98032.94;;;23.73;100.00
5283;BME280;15376;48.540;9.268;2023-08-21T07:17:54;98091.91;;;24.26;100.00
5283;BME280;15376;48.540;9.268;2023-08-21T07:20:20;98055.66;;;24.15;100.00
5283;BME280;15376;48.540;9.268;2023-08-21T07:22:46;98068.28;;;24.26;100.00
5283;BME280;15376;48.540;9.268;2023-08-21T07:25:11;98075.47;;;24.38;100.00
5283;BME280;15376;48.540;9.268;2023-08-21T07:27:36;98042.53;;;24.29;100.00
5283;BME280;15376;48.540;9.268;2023-08-21T07:30:02;98063.53;;;24.39;100.00
5283;BME280;15376;48.540;9.268;2023-08-21T07:32:27;98065.75;;;24.47;100.00
5283;BME280;15376;48.540;9.268;2023-08-21T07:34:53;98032.50;;;24.30;100.00
5283;BME280;15376;48.540;9.268;2023-08-21T07:37:21;98089.63;;;24.72;100.00
5283;BME280;15376;48.540;9.268;2023-08-21T07:39:47;98096.44;;;24.79;100.00
5283;BME280;15376;48.540;9.268;2023-08-21T07:42:12;98088.38;;;24.89;100.00
5283;BME280;15376;48.540;9.268;2023-08-21T07:44:39;98066.84;;;24.78;100.00
5283;BME280;15376;48.540;9.268;2023-08-21T07:47:04;98083.31;;;24.98;100.00
5283;BME280;15376;48.540;9.268;2023-08-21T07:49:31;98084.69;;;25.01;100.00
5283;BME280;15376;48.540;9.268;2023-08-21T07:51:56;98041.56;;;24.77;100.00
5283;BME280;15376;48.540;9.268;2023-08-21T07:54:21;98076.63;;;25.11;100.00
5283;BME280;15376;48.540;9.268;2023-08-21T07:56:47;98084.28;;;25.24;100.00
5283;BME280;15376;48.540;9.268;2023-08-21T07:59:12;98093.59;;;25.33;100.00
5283;BME280;15376;48.540;9.268;2023-08-21T08:01:38;98092.53;;;25.34;100.00
5283;BME280;15376;48.540;9.268;2023-08-21T08:04:04;98091.25;;;25.47;100.00
5283;BME280;15376;48.540;9.268;2023-08-21T08:06:31;98092.66;;;25.54;100.00
5283;BME280;15376;48.540;9.268;2023-08-21T08:08:56;98067.84;;;25.46;100.00
5283;BME280;15376;48.540;9.268;2023-08-21T08:11:21;98093.19;;;25.62;100.00
5283;BME280;15376;48.540;9.268;2023-08-21T08:13:47;98076.06;;;25.61;100.00
5283;BME280;15376;48.540;9.268;2023-08-21T08:16:12;98047.44;;;25.43;100.00
5283;BME280;15376;48.540;9.268;2023-08-21T08:18:38;98096.03;;;25.77;100.00
5283;BME280;15376;48.540;9.268;2023-08-21T08:21:03;98090.59;;;25.77;100.00
5283;BME280;15376;48.540;9.268;2023-08-21T08:23:28;98091.13;;;25.79;100.00
5283;BME280;15376;48.540;9.268;2023-08-21T08:25:53;98092.28;;;25.88;100.00
5283;BME280;15376;48.540;9.268;2023-08-21T08:28:19;98075.69;;;25.95;100.00
5283;BME280;15376;48.540;9.268;2023-08-21T08:30:45;98071.31;;;25.88;100.00
5283;BME280;15376;48.540;9.268;2023-08-21T08:33:10;98065.09;;;26.08;100.00
5283;BME280;15376;48.540;9.268;2023-08-21T08:35:36;98065.66;;;26.15;100.00
5283;BME280;15376;48.540;9.268;2023-08-21T08:38:01;98091.31;;;26.45;100.00
5283;BME280;15376;48.540;9.268;2023-08-21T08:40:27;98039.25;;;26.26;100.00
5283;BME280;15376;48.540;9.268;2023-08-21T08:42:53;98071.72;;;26.48;100.00
5283;BME280;15376;48.540;9.268;2023-08-21T08:45:28;98042.53;;;26.28;100.00
5283;BME280;15376;48.540;9.268;2023-08-21T08:47:56;98086.19;;;26.74;100.00
5283;BME280;15376;48.540;9.268;2023-08-21T08:50:23;98076.91;;;26.80;100.00
5283;BME280;15376;48.540;9.268;2023-08-21T08:52:49;98069.53;;;26.80;100.00
5283;BME280;15376;48.540;9.268;2023-08-21T08:55:14;98039.31;;;26.72;100.00
5283;BME280;15376;48.540;9.268;2023-08-21T08:57:40;98095.19;;;27.15;100.00
5283;BME280;15376;48.540;9.268;2023-08-21T09:00:05;98062.72;;;26.88;100.00
5283;BME280;15376;48.540;9.268;2023-08-21T09:02:31;98069.00;;;26.88;100.00
5283;BME280;15376;48.540;9.268;2023-08-21T09:04:56;98085.34;;;26.94;100.00
5283;BME280;15376;48.540;9.268;2023-08-21T09:07:22;98090.84;;;27.09;100.00
5283;BME280;15376;48.540;9.268;2023-08-21T09:09:48;98096.00;;;27.15;100.00
5283;BME280;15376;48.540;9.268;2023-08-21T09:12:16;98079.94;;;27.09;100.00
5283;BME280;15376;48.540;9.268;2023-08-21T09:14:42;98091.59;;;27.19;100.00
5283;BME280;15376;48.540;9.268;2023-08-21T09:17:08;98065.19;;;27.15;100.00
5283;BME280;15376;48.540;9.268;2023-08-21T09:19:34;98088.00;;;27.49;100.00
5283;BME280;15376;48.540;9.268;2023-08-21T09:22:13;98084.66;;;27.78;100.00
5283;BME280;15376;48.540;9.268;2023-08-21T09:24:40;98088.69;;;27.96;100.00
5283;BME280;15376;48.540;9.268;2023-08-21T09:27:13;98075.88;;;27.91;100.00
5283;BME280;15376;48.540;9.268;2023-08-21T09:29:41;98029.00;;;27.74;100.00
5283;BME280;15376;48.540;9.268;2023-08-21T09:32:06;98084.47;;;28.13;100.00
5283;BME280;15376;48.540;9.268;2023-08-21T09:34:35;98081.16;;;28.27;99.94
5283;BME280;15376;48.540;9.268;2023-08-21T09:37:04;98083.03;;;28.36;100.00
5283;BME280;15376;48.540;9.268;2023-08-21T09:39:34;98070.75;;;28.68;96.82
5283;BME280;15376;48.540;9.268;2023-08-21T09:42:00;98073.81;;;28.95;96.04
5283;BME280;15376;48.540;9.268;2023-08-21T09:44:27;98038.88;;;29.16;98.59
5283;BME280;15376;48.540;9.268;2023-08-21T09:46:52;98036.22;;;30.01;93.73
5283;BME280;15376;48.540;9.268;2023-08-21T09:49:18;98078.03;;;31.74;85.14
5283;BME280;15376;48.540;9.268;2023-08-21T09:51:44;98078.78;;;32.88;81.70
5283;BME280;15376;48.540;9.268;2023-08-21T09:54:11;98080.72;;;33.41;74.56
5283;BME280;15376;48.540;9.268;2023-08-21T09:56:37;98072.91;;;34.57;74.11
5283;BME280;15376;48.540;9.268;2023-08-21T09:59:03;98067.78;;;35.66;58.47
5283;BME280;15376;48.540;9.268;2023-08-21T10:01:30;98082.81;;;35.94;63.38
5283;BME280;15376;48.540;9.268;2023-08-21T10:04:01;98073.06;;;37.13;57.21
5283;BME280;15376;48.540;9.268;2023-08-21T10:06:28;98082.91;;;36.90;56.07
5283;BME280;15376;48.540;9.268;2023-08-21T10:08:54;98079.31;;;37.67;54.83
5283;BME280;15376;48.540;9.268;2023-08-21T10:11:20;98070.00;;;36.94;54.30
5283;BME280;15376;48.540;9.268;2023-08-21T10:13:46;98061.84;;;37.55;52.65
5283;BME280;15376;48.540;9.268;2023-08-21T10:16:12;98056.94;;;37.27;53.75
5283;BME280;15376;48.540;9.268;2023-08-21T10:18:43;98049.63;;;39.00;51.08
5283;BME280;15376;48.540;9.268;2023-08-21T10:23:43;98067.06;;;39.29;48.31
5283;BME280;15376;48.540;9.268;2023-08-21T10:26:11;98071.72;;;40.04;45.75
5283;BME280;15376;48.540;9.268;2023-08-21T10:28:59;98079.41;;;39.91;42.85
5283;BME280;15376;48.540;9.268;2023-08-21T10:34:10;98069.78;;;39.88;43.33
5283;BME280;15376;48.540;9.268;2023-08-21T10:49:59;98052.91;;;40.32;44.48
5283;BME280;15376;48.540;9.268;2023-08-21T10:52:27;98056.16;;;40.34;40.57
5283;BME280;15376;48.540;9.268;2023-08-21T10:54:54;98044.94;;;39.64;42.51
5283;BME280;15376;48.540;9.268;2023-08-21T10:57:21;98027.22;;;40.77;38.63
5283;BME280;15376;48.540;9.268;2023-08-21T11:02:15;98041.34;;;41.30;40.60
5283;BME280;15376;48.540;9.268;2023-08-21T11:04:40;98040.19;;;41.12;40.57
5283;BME280;15376;48.540;9.268;2023-08-21T11:07:07;98040.94;;;41.77;38.08
5283;BME280;15376;48.540;9.268;2023-08-21T11:09:35;98027.03;;;40.89;41.49
5283;BME280;15376;48.540;9.268;2023-08-21T11:12:06;98009.03;;;41.52;40.84
5283;BME280;15376;48.540;9.268;2023-08-21T11:14:31;98020.78;;;41.87;36.81
5283;BME280;15376;48.540;9.268;2023-08-21T11:16:59;98046.44;;;41.97;36.45
5283;BME280;15376;48.540;9.268;2023-08-21T11:19:24;98023.19;;;41.40;37.74
5283;BME280;15376;48.540;9.268;2023-08-21T11:21:53;98044.25;;;41.60;40.36
5283;BME280;15376;48.540;9.268;2023-08-21T11:24:18;98050.88;;;42.91;33.82
5283;BME280;15376;48.540;9.268;2023-08-21T11:26:43;98045.28;;;41.75;34.94
5283;BME280;15376;48.540;9.268;2023-08-21T11:29:09;98038.88;;;41.06;38.27
5283;BME280;15376;48.540;9.268;2023-08-21T11:31:34;98033.38;;;41.09;36.97
5283;BME280;15376;48.540;9.268;2023-08-21T11:34:00;98037.97;;;41.21;37.72
5283;BME280;15376;48.540;9.268;2023-08-21T11:36:25;98039.94;;;41.89;38.70
5283;BME280;15376;48.540;9.268;2023-08-21T11:39:00;98039.97;;;42.19;36.09
5283;BME280;15376;48.540;9.268;2023-08-21T11:41:26;98039.03;;;42.68;35.25
5283;BME280;15376;48.540;9.268;2023-08-21T11:43:51;98034.88;;;41.72;35.63
5283;BME280;15376;48.540;9.268;2023-08-21T11:46:18;98028.22;;;40.88;36.34
5283;BME280;15376;48.540;9.268;2023-08-21T11:48:44;98033.09;;;41.14;36.59
5283;BME280;15376;48.540;9.268;2023-08-21T11:51:10;97985.50;;;40.42;38.19
5283;BME280;15376;48.540;9.268;2023-08-21T11:53:40;98014.28;;;40.50;36.94
5283;BME280;15376;48.540;9.268;2023-08-21T11:56:10;98024.72;;;39.83;38.07
5283;BME280;15376;48.540;9.268;2023-08-21T11:58:40;97993.75;;;40.19;36.24
5283;BME280;15376;48.540;9.268;2023-08-21T12:01:06;98022.22;;;39.93;37.56
5283;BME280;15376;48.540;9.268;2023-08-21T12:03:39;98008.44;;;39.03;39.57
5283;BME280;15376;48.540;9.268;2023-08-21T12:06:06;98007.81;;;38.53;41.24
5283;BME280;15376;48.540;9.268;2023-08-21T12:08:32;97988.72;;;37.84;41.63
5283;BME280;15376;48.540;9.268;2023-08-21T12:10:57;97995.56;;;36.59;45.09
5283;BME280;15376;48.540;9.268;2023-08-21T12:13:22;98000.19;;;36.14;45.21
5283;BME280;15376;48.540;9.268;2023-08-21T12:15:48;98008.31;;;35.60;46.61
5283;BME280;15376;48.540;9.268;2023-08-21T12:18:13;98002.13;;;35.33;48.54
5283;BME280;15376;48.540;9.268;2023-08-21T12:20:38;97979.59;;;35.14;46.15
5283;BME280;15376;48.540;9.268;2023-08-21T12:23:04;97999.28;;;35.04;48.33
5283;BME280;15376;48.540;9.268;2023-08-21T12:25:29;97983.13;;;34.76;49.62
5283;BME280;15376;48.540;9.268;2023-08-21T12:27:57;97988.84;;;34.28;50.56
5283;BME280;15376;48.540;9.268;2023-08-21T12:30:22;97983.34;;;33.94;49.87
5283;BME280;15376;48.540;9.268;2023-08-21T12:32:48;97983.09;;;33.56;52.99
5283;BME280;15376;48.540;9.268;2023-08-21T12:35:13;97950.81;;;33.08;54.61
5283;BME280;15376;48.540;9.268;2023-08-21T12:37:38;97952.88;;;32.94;54.90
5283;BME280;15376;48.540;9.268;2023-08-21T12:40:04;97953.53;;;32.68;54.98
5283;BME280;15376;48.540;9.268;2023-08-21T12:42:30;97968.53;;;32.62;56.18
5283;BME280;15376;48.540;9.268;2023-08-21T12:44:55;97964.59;;;32.55;56.52
5283;BME280;15376;48.540;9.268;2023-08-21T12:47:21;97966.69;;;32.27;58.51
5283;BME280;15376;48.540;9.268;2023-08-21T12:49:46;97942.91;;;32.08;60.18
5283;BME280;15376;48.540;9.268;2023-08-21T12:52:12;97940.16;;;32.08;59.01
5283;BME280;15376;48.540;9.268;2023-08-21T12:54:38;97966.50;;;32.23;61.19
5283;BME280;15376;48.540;9.268;2023-08-21T12:57:04;97965.06;;;32.26;56.90
5283;BME280;15376;48.540;9.268;2023-08-21T12:59:29;97953.59;;;32.10;58.52
5283;BME280;15376;48.540;9.268;2023-08-21T13:01:55;97954.78;;;32.17;57.52
5283;BME280;15376;48.540;9.268;2023-08-21T13:04:20;97961.31;;;32.22;59.41
5283;BME280;15376;48.540;9.268;2023-08-21T13:06:46;97945.13;;;31.84;62.35
5283;BME280;15376;48.540;9.268;2023-08-21T13:09:11;97936.66;;;32.16;57.16
5283;BME280;15376;48.540;9.268;2023-08-21T13:11:37;97941.53;;;32.20;57.34
5283;BME280;15376;48.540;9.268;2023-08-21T13:14:02;97939.34;;;32.08;60.75
5283;BME280;15376;48.540;9.268;2023-08-21T13:16:28;97921.22;;;31.85;58.98
5283;BME280;15376;48.540;9.268;2023-08-21T13:18:53;97938.81;;;31.83;61.09